createdAt,value
2019-02-28T00:00:24.200Z,92.30
2019-02-28T00:02:53.927Z,81.70
2019-02-28T00:05:22.916Z,87.47
2019-02-28T00:07:51.396Z,79.47
2019-02-28T00:10:19.911Z,80.10
2019-02-28T00:12:48.738Z,82.15
2019-02-28T00:15:17.291Z,78.55
2019-02-28T00:17:45.803Z,82.30
2019-02-28T00:20:14.289Z,82.95
2019-02-28T00:22:42.786Z,80.12
2019-02-28T00:25:11.261Z,90.12
2019-02-28T00:27:39.771Z,79.12
2019-02-28T00:30:11.562Z,75.50
2019-02-28T00:32:40.134Z,75.92
2019-02-28T00:35:12.994Z,73.28
2019-02-28T00:37:39.227Z,72.70
2019-02-28T00:40:09.240Z,68.40
2019-02-28T00:42:37.848Z,72.37
2019-02-28T00:45:09.566Z,64.47
2019-02-28T00:47:38.276Z,66.50
2019-02-28T00:50:07.304Z,70.90
2019-02-28T00:52:36.121Z,70.52
2019-02-28T00:55:07.154Z,68.52
2019-02-28T00:57:35.647Z,67.42
2019-02-28T01:00:06.269Z,66.67
2019-02-28T01:02:34.928Z,74.20
2019-02-28T01:05:05.039Z,67.30
2019-02-28T01:07:34.061Z,65.92
2019-02-28T01:10:04.560Z,61.13
2019-02-28T01:12:32.687Z,64.20
2019-02-28T01:15:01.414Z,64.97
2019-02-28T01:17:29.876Z,69.70
2019-02-28T01:19:58.392Z,77.08
2019-02-28T01:22:28.013Z,69.80
2019-02-28T01:24:56.669Z,71.35
2019-02-28T01:27:25.158Z,70.52
2019-02-28T01:29:53.650Z,67.12
2019-02-28T01:32:22.141Z,70.03
2019-02-28T01:34:50.718Z,69.37
2019-02-28T01:37:20.936Z,67.05
2019-02-28T01:39:49.423Z,66.45
2019-02-28T01:42:19.946Z,71.97
2019-02-28T01:44:48.106Z,72.87
2019-02-28T01:47:19.912Z,74.55
2019-02-28T01:49:46.697Z,73.17
2019-02-28T01:52:15.171Z,71.65
2019-02-28T01:54:43.665Z,71.42
2019-02-28T01:57:12.177Z,65.55
2019-02-28T01:59:40.706Z,78.02
2019-02-28T02:02:09.178Z,65.37
2019-02-28T02:04:37.745Z,64.58
2019-02-28T02:07:06.226Z,65.05
2019-02-28T02:09:34.728Z,74.87
2019-02-28T02:12:04.843Z,61.83
2019-02-28T02:14:33.400Z,64.12
2019-02-28T02:17:02.013Z,61.65
2019-02-28T02:19:30.559Z,65.70
2019-02-28T02:21:59.041Z,67.75
2019-02-28T02:24:27.981Z,69.80
2019-02-28T02:26:57.436Z,66.90
2019-02-28T02:29:25.958Z,63.28
2019-02-28T02:31:54.455Z,65.15
2019-02-28T02:34:24.352Z,55.60
2019-02-28T02:36:54.485Z,69.00
2019-02-28T02:39:23.060Z,63.08
2019-02-28T02:41:51.548Z,63.35
2019-02-28T02:44:20.055Z,60.17
2019-02-28T02:46:55.572Z,53.23
2019-02-28T02:49:20.026Z,59.95
2019-02-28T02:51:50.498Z,65.42
2019-02-28T02:54:20.222Z,65.17
2019-02-28T02:56:48.898Z,55.65
2019-02-28T02:59:17.401Z,57.55
2019-02-28T03:01:45.878Z,60.95
2019-02-28T03:04:21.736Z,55.75
2019-02-28T03:06:45.885Z,56.70
2019-02-28T03:09:14.703Z,59.73
2019-02-28T03:11:43.187Z,58.73
2019-02-28T03:14:16.510Z,58.30
2019-02-28T03:16:41.835Z,62.65
2019-02-28T03:19:10.316Z,54.33
2019-02-28T03:21:38.797Z,60.92
2019-02-28T03:24:07.285Z,76.28
2019-02-28T03:26:41.545Z,70.12
2019-02-28T03:29:07.870Z,69.07
2019-02-28T03:31:36.145Z,67.25
2019-02-28T03:34:13.043Z,74.35
2019-02-28T03:36:34.764Z,74.62
2019-02-28T03:39:04.715Z,76.30
2019-02-28T03:41:33.215Z,79.95
2019-02-28T03:44:01.811Z,75.67
2019-02-28T03:46:30.303Z,85.12
2019-02-28T03:48:58.801Z,83.52
2019-02-28T03:51:28.752Z,81.08
2019-02-28T03:53:57.403Z,87.78
2019-02-28T03:56:25.879Z,84.92
2019-02-28T03:58:54.372Z,80.42
2019-02-28T04:01:22.997Z,89.97
2019-02-28T04:03:51.483Z,104.47
2019-02-28T04:06:20.018Z,99.30
2019-02-28T04:08:48.494Z,93.60
2019-02-28T04:11:16.991Z,89.77
2019-02-28T04:13:45.523Z,86.35
2019-02-28T04:16:14.020Z,95.30
2019-02-28T04:18:46.070Z,95.53
2019-02-28T04:21:12.627Z,97.85
2019-02-28T04:23:41.175Z,99.05
2019-02-28T04:26:09.646Z,96.65
2019-02-28T04:28:38.116Z,100.42
2019-02-28T04:31:06.624Z,108.45
2019-02-28T04:33:39.088Z,110.37
2019-02-28T04:36:05.381Z,105.40
2019-02-28T04:38:33.857Z,102.78
2019-02-28T04:41:02.476Z,100.62
2019-02-28T04:43:31.226Z,111.80
2019-02-28T04:45:59.711Z,105.92
2019-02-28T04:48:28.221Z,100.00
2019-02-28T04:50:56.717Z,109.57
2019-02-28T04:53:25.224Z,107.63
2019-02-28T04:55:53.735Z,99.00
2019-02-28T04:58:24.918Z,110.12
2019-02-28T05:00:52.399Z,105.15
2019-02-28T05:03:20.906Z,103.00
2019-02-28T05:05:49.388Z,106.90
2019-02-28T05:08:17.941Z,102.72
2019-02-28T05:10:46.490Z,108.25
2019-02-28T05:13:16.799Z,109.27
2019-02-28T05:15:45.272Z,104.83
2019-02-28T05:18:13.839Z,108.12
2019-02-28T05:20:45.888Z,104.97
2019-02-28T05:23:12.467Z,103.42
2019-02-28T05:25:40.958Z,108.45
2019-02-28T05:28:09.504Z,101.58
2019-02-28T05:30:37.980Z,108.30
2019-02-28T05:33:07.376Z,107.45
2019-02-28T05:35:35.963Z,104.50
2019-02-28T05:38:04.501Z,110.65
2019-02-28T05:40:32.978Z,113.65
2019-02-28T05:43:01.490Z,122.90
2019-02-28T05:45:29.973Z,109.05
2019-02-28T05:47:58.460Z,109.75
2019-02-28T05:50:26.954Z,112.80
2019-02-28T05:52:55.447Z,112.35
2019-02-28T05:55:25.531Z,108.05
2019-02-28T05:57:54.317Z,116.55
2019-02-28T06:00:24.586Z,108.65
2019-02-28T06:02:57.656Z,126.20
2019-02-28T06:05:23.229Z,116.65
2019-02-28T06:07:51.719Z,119.35
2019-02-28T06:10:23.352Z,114.62
2019-02-28T06:12:50.349Z,109.05
2019-02-28T06:15:18.838Z,126.00
2019-02-28T06:17:47.325Z,115.10
2019-02-28T06:20:16.945Z,128.87
2019-02-28T06:22:45.959Z,122.17
2019-02-28T06:25:22.163Z,120.92
2019-02-28T06:27:48.909Z,112.75
2019-02-28T06:30:16.102Z,126.45
2019-02-28T06:32:44.586Z,127.38
2019-02-28T06:35:16.074Z,129.53
2019-02-28T06:37:43.224Z,117.72
2019-02-28T06:40:13.773Z,137.37
2019-02-28T06:42:43.529Z,131.65
2019-02-28T06:45:17.473Z,136.55
2019-02-28T06:47:49.578Z,150.93
2019-02-28T06:50:16.439Z,132.07
2019-02-28T06:52:44.936Z,140.03
2019-02-28T06:55:28.799Z,151.12
2019-02-28T06:57:58.782Z,143.57
2019-02-28T07:00:27.484Z,140.35
2019-02-28T07:02:56.245Z,139.28
2019-02-28T07:05:25.949Z,137.85
2019-02-28T07:07:54.625Z,138.92
2019-02-28T07:10:23.107Z,130.37
2019-02-28T07:12:51.609Z,128.62
2019-02-28T07:15:23.762Z,111.00
2019-02-28T07:17:50.280Z,122.02
2019-02-28T07:20:19.700Z,134.00
2019-02-28T07:22:48.214Z,126.22
2019-02-28T07:25:16.690Z,125.50
2019-02-28T07:27:45.262Z,127.70
2019-02-28T07:30:19.442Z,114.97
2019-02-28T07:32:48.153Z,129.05
2019-02-28T07:35:16.698Z,100.22
2019-02-28T07:37:45.509Z,91.12
2019-02-28T07:40:17.881Z,83.12
2019-02-28T07:42:46.867Z,88.92
2019-02-28T07:45:17.197Z,89.47
2019-02-28T07:47:51.783Z,80.62
2019-02-28T07:50:16.439Z,87.82
2019-02-28T07:52:44.943Z,83.37
2019-02-28T07:55:18.847Z,86.02
2019-02-28T07:57:51.126Z,79.50
2019-02-28T08:00:24.374Z,88.27
2019-02-28T08:02:52.870Z,82.00
2019-02-28T08:05:21.543Z,80.77
2019-02-28T08:07:52.657Z,74.30
2019-02-28T08:10:31.674Z,80.62
2019-02-28T08:13:03.118Z,80.57
2019-02-28T08:15:30.713Z,91.63
2019-02-28T08:17:59.209Z,91.82
2019-02-28T08:20:30.705Z,90.45
2019-02-28T08:22:57.838Z,99.45
2019-02-28T08:25:26.331Z,95.38
2019-02-28T08:27:59.076Z,96.60
2019-02-28T08:30:34.734Z,92.10
2019-02-28T08:33:03.234Z,91.05
2019-02-28T08:35:34.927Z,93.90
2019-02-28T08:38:01.855Z,101.75
2019-02-28T08:40:30.336Z,100.02
2019-02-28T08:42:58.823Z,99.28
2019-02-28T08:45:32.728Z,91.35
2019-02-28T08:47:57.519Z,107.12
2019-02-28T08:50:26.658Z,98.97
2019-02-28T08:52:58.417Z,106.30
2019-02-28T08:55:29.041Z,100.70
2019-02-28T08:58:04.054Z,102.05
2019-02-28T09:00:31.221Z,98.67
2019-02-28T09:02:57.338Z,95.77
2019-02-28T09:05:28.989Z,90.07
2019-02-28T09:07:56.023Z,90.45
2019-02-28T09:10:25.489Z,78.75
2019-02-28T09:12:53.981Z,88.12
2019-02-28T09:15:22.552Z,91.08
2019-02-28T09:17:51.567Z,88.62
2019-02-28T09:20:20.048Z,78.57
2019-02-28T09:22:49.860Z,79.77
2019-02-28T09:25:23.080Z,77.35
2019-02-28T09:27:51.787Z,81.95
2019-02-28T09:30:32.160Z,65.47
2019-02-28T09:33:00.661Z,66.35
2019-02-28T09:35:29.163Z,65.97
2019-02-28T09:37:57.646Z,65.12
2019-02-28T09:40:29.507Z,67.17
2019-02-28T09:42:56.311Z,67.72
2019-02-28T09:45:26.759Z,68.47
2019-02-28T09:48:00.813Z,71.02
2019-02-28T09:50:25.536Z,67.47
2019-02-28T09:52:54.019Z,75.78
2019-02-28T09:55:22.518Z,69.25
2019-02-28T09:57:54.729Z,66.53
2019-02-28T10:00:22.357Z,68.33
2019-02-28T10:02:52.967Z,73.62
2019-02-28T10:05:21.056Z,72.17
2019-02-28T10:07:49.536Z,73.47
2019-02-28T10:10:22.056Z,74.30
2019-02-28T10:12:50.708Z,73.57
2019-02-28T10:15:20.660Z,74.30
2019-02-28T10:17:49.153Z,77.17
2019-02-28T10:20:40.423Z,75.78
2019-02-28T10:23:08.907Z,79.87
2019-02-28T10:25:43.299Z,80.95
2019-02-28T10:28:07.539Z,81.97
2019-02-28T10:30:36.041Z,77.32
2019-02-28T10:33:04.592Z,78.00
2019-02-28T10:35:33.544Z,78.80
2019-02-28T10:38:03.246Z,77.95
2019-02-28T10:40:31.790Z,76.47
2019-02-28T10:43:00.311Z,69.77
2019-02-28T10:45:28.961Z,69.15
2019-02-28T10:48:02.951Z,77.58
2019-02-28T10:50:35.388Z,65.50
2019-02-28T10:53:05.756Z,70.75
2019-02-28T10:55:34.696Z,80.75
2019-02-28T10:58:03.363Z,78.25
2019-02-28T11:00:43.155Z,78.07
2019-02-28T11:03:11.815Z,83.10
2019-02-28T11:05:42.557Z,82.80
2019-02-28T11:08:19.158Z,81.08
2019-02-28T11:10:47.451Z,87.37
2019-02-28T11:13:20.198Z,79.00
2019-02-28T11:15:49.379Z,90.40
2019-02-28T11:18:17.959Z,85.40
2019-02-28T11:20:46.552Z,80.65
2019-02-28T11:23:15.911Z,84.85
2019-02-28T11:25:44.489Z,80.83
2019-02-28T11:28:13.574Z,73.00
2019-02-28T11:30:44.728Z,80.45
2019-02-28T11:33:12.465Z,72.32
2019-02-28T11:35:40.943Z,82.25
2019-02-28T11:38:09.468Z,87.90
2019-02-28T11:40:40.503Z,76.45
2019-02-28T11:43:08.076Z,82.15
2019-02-28T11:45:37.980Z,85.47
2019-02-28T11:48:08.395Z,86.67
2019-02-28T11:50:41.333Z,76.85
2019-02-28T11:53:07.282Z,77.37
2019-02-28T11:55:35.786Z,78.47
2019-02-28T11:58:04.283Z,76.20
2019-02-28T12:00:36.942Z,77.80
2019-02-28T12:03:05.824Z,74.47
2019-02-28T12:05:34.494Z,74.00
2019-02-28T12:08:02.982Z,72.87
2019-02-28T12:10:31.470Z,77.12
2019-02-28T12:12:59.983Z,78.15
2019-02-28T12:15:31.019Z,76.57
2019-02-28T12:18:03.654Z,81.15
2019-02-28T12:20:29.678Z,72.40
2019-02-28T12:22:58.201Z,71.53
2019-02-28T12:25:26.806Z,79.25
2019-02-28T12:27:55.343Z,76.62
2019-02-28T12:30:29.106Z,74.10
2019-02-28T12:32:57.614Z,73.87
2019-02-28T12:35:26.127Z,73.80
2019-02-28T12:37:55.035Z,69.45
2019-02-28T12:40:29.682Z,71.33
2019-02-28T12:42:58.235Z,70.10
2019-02-28T12:45:29.521Z,74.47
2019-02-28T12:47:58.015Z,73.12
2019-02-28T12:50:29.440Z,68.97
2019-02-28T12:52:57.018Z,75.97
2019-02-28T12:55:25.728Z,75.00
2019-02-28T12:57:54.788Z,64.75
2019-02-28T13:00:27.420Z,65.45
2019-02-28T13:02:56.067Z,72.42
2019-02-28T13:05:24.755Z,71.42
2019-02-28T13:07:53.381Z,71.62
2019-02-28T13:10:26.845Z,68.83
2019-02-28T13:12:53.297Z,83.07
2019-02-28T13:15:23.030Z,79.42
2019-02-28T13:17:51.510Z,79.62
2019-02-28T13:20:22.712Z,76.17
2019-02-28T13:22:51.311Z,73.47
2019-02-28T13:25:23.502Z,71.30
2019-02-28T13:27:50.402Z,77.97
2019-02-28T13:30:20.849Z,77.08
2019-02-28T13:32:49.427Z,81.08
2019-02-28T13:35:23.739Z,72.92
2019-02-28T13:37:52.449Z,67.82
2019-02-28T13:40:22.251Z,76.82
2019-02-28T13:42:50.973Z,73.97
2019-02-28T13:45:23.116Z,73.92
2019-02-28T13:47:50.862Z,78.90
2019-02-28T13:50:25.723Z,79.45
2019-02-28T13:52:55.219Z,79.47
2019-02-28T13:55:23.742Z,73.85
2019-02-28T13:57:52.299Z,73.45
2019-02-28T14:00:22.836Z,75.83
2019-02-28T14:02:53.163Z,70.30
2019-02-28T14:05:21.853Z,62.38
2019-02-28T14:07:50.311Z,71.35
2019-02-28T14:10:19.438Z,74.22
2019-02-28T14:12:48.504Z,74.27
2019-02-28T14:15:19.741Z,70.52
2019-02-28T14:17:48.287Z,69.45
2019-02-28T14:20:16.773Z,78.28
2019-02-28T14:22:45.796Z,84.40
2019-02-28T14:25:15.190Z,78.50
2019-02-28T14:27:43.730Z,80.57
2019-02-28T14:30:14.389Z,81.30
2019-02-28T14:32:44.093Z,78.80
2019-02-28T14:35:16.289Z,73.92
2019-02-28T14:37:44.831Z,75.37
2019-02-28T14:40:14.661Z,74.47
2019-02-28T14:42:45.987Z,71.30
2019-02-28T14:45:28.868Z,75.22
2019-02-28T14:47:57.543Z,74.00
2019-02-28T14:50:26.062Z,74.12
2019-02-28T14:52:56.761Z,72.05
2019-02-28T14:55:29.233Z,67.90
2019-02-28T14:57:57.094Z,68.42
2019-02-28T15:00:30.513Z,66.57
2019-02-28T15:05:31.105Z,74.85
2019-02-28T15:07:59.597Z,66.87
2019-02-28T15:10:29.616Z,64.35
2019-02-28T15:12:59.848Z,71.65
2019-02-28T15:15:28.587Z,73.67
2019-02-28T15:17:58.706Z,78.33
2019-02-28T15:20:31.781Z,74.92
2019-02-28T15:22:59.606Z,84.50
2019-02-28T15:25:29.693Z,77.12
2019-02-28T15:27:58.224Z,79.35
2019-02-28T15:30:34.981Z,82.57
2019-02-28T15:33:03.623Z,80.35
2019-02-28T15:35:32.080Z,83.78
2019-02-28T15:38:00.583Z,79.22
2019-02-28T15:40:35.031Z,82.12
2019-02-28T15:43:03.595Z,84.05
2019-02-28T15:45:32.074Z,81.42
2019-02-28T15:48:00.664Z,84.10
2019-02-28T15:50:29.186Z,87.78
2019-02-28T15:52:57.811Z,87.88
2019-02-28T15:55:26.298Z,90.30
2019-02-28T15:57:54.815Z,88.10
2019-02-28T16:00:28.522Z,81.37
2019-02-28T16:02:57.322Z,84.90
2019-02-28T16:05:25.814Z,87.85
2019-02-28T16:07:54.466Z,86.78
2019-02-28T16:10:31.853Z,105.47
2019-02-28T16:13:02.067Z,107.05
2019-02-28T16:15:30.580Z,95.05
2019-02-28T16:17:59.072Z,100.82
2019-02-28T16:20:28.642Z,91.57
2019-02-28T16:22:57.767Z,99.10
2019-02-28T16:25:38.335Z,100.10
2019-02-28T16:28:08.764Z,101.75
2019-02-28T16:30:38.358Z,98.55
2019-02-28T16:33:06.835Z,104.12
2019-02-28T16:35:35.346Z,105.60
2019-02-28T16:38:06.452Z,102.25
2019-02-28T16:40:33.973Z,93.35
2019-02-28T16:43:02.458Z,110.60
2019-02-28T16:45:32.669Z,97.53
2019-02-28T16:48:03.024Z,104.45
2019-02-28T16:50:31.692Z,101.22
2019-02-28T16:53:00.252Z,102.65
2019-02-28T16:55:31.029Z,98.65
2019-02-28T16:57:58.890Z,108.15
2019-02-28T17:00:27.464Z,103.27
2019-02-28T17:02:55.969Z,110.88
2019-02-28T17:05:28.115Z,103.45
2019-02-28T17:07:54.705Z,108.37
2019-02-28T17:10:36.556Z,109.07
2019-02-28T17:13:12.837Z,103.92
2019-02-28T17:15:48.933Z,109.22
2019-02-28T17:18:22.553Z,108.10
2019-02-28T17:20:51.163Z,108.72
2019-02-28T17:23:19.671Z,107.20
2019-02-28T17:25:48.175Z,112.37
2019-02-28T17:28:18.312Z,119.17
2019-02-28T17:30:48.481Z,109.57
2019-02-28T17:33:17.048Z,108.00
2019-02-28T17:35:45.555Z,112.92
2019-02-28T17:38:14.068Z,118.55
2019-02-28T17:40:42.571Z,118.87
2019-02-28T17:43:11.079Z,110.75
2019-02-28T17:45:39.670Z,109.10
2019-02-28T17:48:26.295Z,110.65
2019-02-28T17:51:09.866Z,120.15
2019-02-28T17:53:42.036Z,117.50
2019-02-28T17:56:44.775Z,115.65
2019-02-28T17:59:28.475Z,120.77
2019-02-28T18:02:11.880Z,133.37
2019-02-28T18:04:52.228Z,121.87
2019-02-28T18:07:29.873Z,118.25
2019-02-28T18:10:13.449Z,121.92
2019-02-28T18:12:53.051Z,123.40
2019-02-28T18:15:24.621Z,129.25
2019-02-28T18:18:05.291Z,139.70
2019-02-28T18:20:41.633Z,127.95
2019-02-28T18:23:32.854Z,124.35
2019-02-28T18:26:25.785Z,118.77
2019-02-28T18:29:15.534Z,121.30
2019-02-28T18:31:44.067Z,119.70
2019-02-28T18:34:12.552Z,120.90
2019-02-28T18:36:44.212Z,116.00
2019-02-28T18:39:12.802Z,120.65
2019-02-28T18:41:42.245Z,111.42
2019-02-28T18:44:11.593Z,119.25
2019-02-28T18:46:40.077Z,119.05
2019-02-28T18:49:08.679Z,119.85
2019-02-28T18:51:37.187Z,124.07
2019-02-28T18:54:05.693Z,120.05
2019-02-28T18:56:34.247Z,122.47
2019-02-28T18:59:04.368Z,124.80
2019-02-28T19:01:32.898Z,127.65
2019-02-28T19:04:01.424Z,123.18
2019-02-28T19:06:29.913Z,118.30
2019-02-28T19:08:58.616Z,117.08
2019-02-28T19:11:27.349Z,116.97
2019-02-28T19:13:56.038Z,122.78
2019-02-28T19:16:24.597Z,124.07
2019-02-28T19:18:53.126Z,126.53
2019-02-28T19:21:21.705Z,128.35
2019-02-28T19:23:50.248Z,135.03
2019-02-28T19:26:18.774Z,139.95
2019-02-28T19:28:47.277Z,129.90
2019-02-28T19:31:15.759Z,116.75
2019-02-28T19:33:44.253Z,136.03
2019-02-28T19:36:12.806Z,138.60
2019-02-28T19:38:42.488Z,122.10
2019-02-28T19:41:11.034Z,135.37
2019-02-28T19:43:39.616Z,120.22
2019-02-28T19:46:08.256Z,138.03
2019-02-28T19:48:36.784Z,127.17
2019-02-28T19:51:05.378Z,126.82
2019-02-28T19:53:33.915Z,127.32
2019-02-28T19:56:02.415Z,128.32
2019-02-28T19:58:30.900Z,127.47
2019-02-28T20:00:59.493Z,121.10
2019-02-28T20:03:28.006Z,123.22
2019-02-28T20:05:56.567Z,116.35
2019-02-28T20:08:25.419Z,125.75
2019-02-28T20:10:53.919Z,123.67
2019-02-28T20:13:22.410Z,129.53
2019-02-28T20:15:50.980Z,126.35
2019-02-28T20:18:19.517Z,109.25
2019-02-28T20:20:47.997Z,115.20
2019-02-28T20:23:16.575Z,117.40
2019-02-28T20:25:45.086Z,117.28
2019-02-28T20:28:15.449Z,128.47
2019-02-28T20:30:43.919Z,123.00
2019-02-28T20:33:12.464Z,121.13
2019-02-28T20:35:40.993Z,115.50
2019-02-28T20:38:09.567Z,118.22
2019-02-28T20:40:38.556Z,116.73
2019-02-28T20:43:07.036Z,122.00
2019-02-28T20:45:35.658Z,118.13
2019-02-28T20:48:04.367Z,122.37
2019-02-28T20:50:41.933Z,118.97
2019-02-28T20:53:10.458Z,121.85
2019-02-28T20:55:39.154Z,121.80
2019-02-28T20:58:07.664Z,121.42
2019-02-28T21:00:36.140Z,124.22
2019-02-28T21:03:04.811Z,116.73
2019-02-28T21:05:33.292Z,116.90
2019-02-28T21:08:01.897Z,120.95
2019-02-28T21:10:30.478Z,121.95
2019-02-28T21:12:58.975Z,116.00
2019-02-28T21:15:27.474Z,115.82
2019-02-28T21:17:55.966Z,109.90
2019-02-28T21:20:24.468Z,121.40
2019-02-28T21:22:52.958Z,115.52
2019-02-28T21:25:21.468Z,121.75
2019-02-28T21:27:50.059Z,116.75
2019-02-28T21:30:21.168Z,122.10
2019-02-28T21:32:49.843Z,112.22
2019-02-28T21:35:18.356Z,118.00
2019-02-28T21:37:47.897Z,117.40
2019-02-28T21:40:18.965Z,116.03
2019-02-28T21:42:47.640Z,113.88
2019-02-28T21:45:21.174Z,118.53
2019-02-28T21:47:49.672Z,105.92
2019-02-28T21:50:18.250Z,116.85
2019-02-28T21:52:46.743Z,118.75
2019-02-28T21:55:18.412Z,122.10
2019-02-28T21:57:46.989Z,109.85
2019-02-28T22:00:24.206Z,121.50
2019-02-28T22:02:52.754Z,122.07
2019-02-28T22:05:21.232Z,117.17
2019-02-28T22:07:49.702Z,124.50
2019-02-28T22:10:18.204Z,117.57
2019-02-28T22:12:46.685Z,123.82
2019-02-28T22:15:22.163Z,113.30
2019-02-28T22:17:50.746Z,114.28
2019-02-28T22:20:19.306Z,117.70
2019-02-28T22:22:47.773Z,123.33
2019-02-28T22:25:16.728Z,120.37
2019-02-28T22:27:45.289Z,113.10
2019-02-28T22:30:39.666Z,135.25
2019-02-28T22:33:10.094Z,124.18
2019-02-28T22:35:40.272Z,118.00
2019-02-28T22:38:08.767Z,124.82
2019-02-28T22:40:37.331Z,120.77
2019-02-28T22:43:05.990Z,121.57
2019-02-28T22:45:34.533Z,121.55
2019-02-28T22:48:03.044Z,133.50
2019-02-28T22:50:31.602Z,119.50
2019-02-28T22:53:00.094Z,122.22
2019-02-28T22:55:28.674Z,120.47
2019-02-28T22:57:57.156Z,118.90
2019-02-28T23:00:30.583Z,129.00
2019-02-28T23:02:59.120Z,131.20
2019-02-28T23:05:27.946Z,132.97
2019-02-28T23:07:57.321Z,121.67
2019-02-28T23:10:26.036Z,118.72
2019-02-28T23:12:54.961Z,123.95
2019-02-28T23:15:23.611Z,124.78
2019-02-28T23:17:52.283Z,136.80
2019-02-28T23:20:20.968Z,124.35
2019-02-28T23:22:49.563Z,122.37
2019-02-28T23:25:18.106Z,132.07
2019-02-28T23:27:46.685Z,130.85
2019-02-28T23:30:21.496Z,126.35
2019-02-28T23:32:56.476Z,131.47
2019-02-28T23:35:28.609Z,136.68
2019-02-28T23:37:57.106Z,131.70
2019-02-28T23:40:25.612Z,134.43
2019-02-28T23:42:54.124Z,123.20
2019-02-28T23:45:22.617Z,135.55
2019-02-28T23:47:52.819Z,147.45
2019-02-28T23:50:21.488Z,136.28
2019-02-28T23:52:49.979Z,130.32
2019-02-28T23:55:18.469Z,126.42
2019-02-28T23:57:47.034Z,137.92
